sensor_id;sensor_type;location;lat;lon;timestamp;temperature;humidity
7427;DHT22;3755;59.316;18.092;2023-10-19T00:00:48;2.60;99.90
7427;DHT22;3755;59.316;18.092;2023-10-19T00:03:17;2.50;99.90
7427;DHT22;3755;59.316;18.092;2023-10-19T00:05:45;2.60;99.90
7427;DHT22;3755;59.316;18.092;2023-10-19T00:08:13;2.60;99.90
7427;DHT22;3755;59.316;18.092;2023-10-19T00:10:47;2.70;99.90
7427;DHT22;3755;59.316;18.092;2023-10-19T00:13:19;2.60;99.90
7427;DHT22;3755;59.316;18.092;2023-10-19T00:15:47;2.50;99.90
7427;DHT22;3755;59.316;18.092;2023-10-19T00:18:17;2.50;99.90
7427;DHT22;3755;59.316;18.092;2023-10-19T00:20:50;2.40;99.90
7427;DHT22;3755;59.316;18.092;2023-10-19T00:23:25;2.40;99.90
7427;DHT22;3755;59.316;18.092;2023-10-19T00:25:55;2.40;99.90
7427;DHT22;3755;59.316;18.092;2023-10-19T00:28:22;2.40;99.90
7427;DHT22;3755;59.316;18.092;2023-10-19T00:30:51;2.40;99.90
7427;DHT22;3755;59.316;18.092;2023-10-19T00:33:19;2.40;99.90
7427;DHT22;3755;59.316;18.092;2023-10-19T00:35:49;2.40;99.90
7427;DHT22;3755;59.316;18.092;2023-10-19T00:38:26;2.40;99.90
7427;DHT22;3755;59.316;18.092;2023-10-19T00:41:08;2.40;99.90
7427;DHT22;3755;59.316;18.092;2023-10-19T00:43:41;2.40;99.90
7427;DHT22;3755;59.316;18.092;2023-10-19T00:46:11;2.40;99.90
7427;DHT22;3755;59.316;18.092;2023-10-19T00:48:48;2.30;99.90
7427;DHT22;3755;59.316;18.092;2023-10-19T00:51:20;2.30;99.90
7427;DHT22;3755;59.316;18.092;2023-10-19T00:54:04;2.30;99.90
7427;DHT22;3755;59.316;18.092;2023-10-19T00:56:35;2.30;99.90
7427;DHT22;3755;59.316;18.092;2023-10-19T00:59:02;2.40;99.90
7427;DHT22;3755;59.316;18.092;2023-10-19T01:01:38;2.40;99.90
7427;DHT22;3755;59.316;18.092;2023-10-19T01:04:09;2.50;99.90
7427;DHT22;3755;59.316;18.092;2023-10-19T01:06:41;2.50;99.90
7427;DHT22;3755;59.316;18.092;2023-10-19T01:09:15;2.50;99.90
7427;DHT22;3755;59.316;18.092;2023-10-19T01:11:45;2.50;99.90
7427;DHT22;3755;59.316;18.092;2023-10-19T01:14:19;2.50;99.90
7427;DHT22;3755;59.316;18.092;2023-10-19T01:16:46;2.50;99.90
7427;DHT22;3755;59.316;18.092;2023-10-19T01:19:15;2.40;99.90
7427;DHT22;3755;59.316;18.092;2023-10-19T01:21:45;2.50;99.90
7427;DHT22;3755;59.316;18.092;2023-10-19T01:24:18;2.40;99.90
7427;DHT22;3755;59.316;18.092;2023-10-19T01:26:50;2.40;99.90
7427;DHT22;3755;59.316;18.092;2023-10-19T01:29:19;2.30;99.90
7427;DHT22;3755;59.316;18.092;2023-10-19T01:31:52;2.40;99.90
7427;DHT22;3755;59.316;18.092;2023-10-19T01:34:22;2.40;99.90
7427;DHT22;3755;59.316;18.092;2023-10-19T01:36:52;2.40;99.90
7427;DHT22;3755;59.316;18.092;2023-10-19T01:39:22;2.40;99.90
7427;DHT22;3755;59.316;18.092;2023-10-19T01:41:48;2.40;99.90
7427;DHT22;3755;59.316;18.092;2023-10-19T01:44:16;2.40;99.90
7427;DHT22;3755;59.316;18.092;2023-10-19T01:46:43;2.40;99.90
7427;DHT22;3755;59.316;18.092;2023-10-19T01:49:11;2.40;99.90
7427;DHT22;3755;59.316;18.092;2023-10-19T01:51:37;2.40;99.90
7427;DHT22;3755;59.316;18.092;2023-10-19T01:54:05;2.40;99.90
7427;DHT22;3755;59.316;18.092;2023-10-19T01:56:33;2.30;99.90
7427;DHT22;3755;59.316;18.092;2023-10-19T01:59:02;2.20;99.90
7427;DHT22;3755;59.316;18.092;2023-10-19T02:01:30;2.20;99.90
7427;DHT22;3755;59.316;18.092;2023-10-19T02:03:59;2.20;99.90
7427;DHT22;3755;59.316;18.092;2023-10-19T02:06:26;2.20;99.90
7427;DHT22;3755;59.316;18.092;2023-10-19T02:08:56;2.10;99.90
7427;DHT22;3755;59.316;18.092;2023-10-19T02:11:26;2.20;99.90
7427;DHT22;3755;59.316;18.092;2023-10-19T02:13:56;2.30;99.90
7427;DHT22;3755;59.316;18.092;2023-10-19T02:16:26;2.30;99.90
7427;DHT22;3755;59.316;18.092;2023-10-19T02:18:55;2.20;99.90
7427;DHT22;3755;59.316;18.092;2023-10-19T02:21:21;2.20;99.90
7427;DHT22;3755;59.316;18.092;2023-10-19T02:23:50;2.10;99.90
7427;DHT22;3755;59.316;18.092;2023-10-19T02:26:17;2.10;99.90
7427;DHT22;3755;59.316;18.092;2023-10-19T02:28:45;2.10;99.90
7427;DHT22;3755;59.316;18.092;2023-10-19T02:31:13;2.10;99.90
7427;DHT22;3755;59.316;18.092;2023-10-19T02:33:44;2.10;99.90
7427;DHT22;3755;59.316;18.092;2023-10-19T02:36:17;2.10;99.90
7427;DHT22;3755;59.316;18.092;2023-10-19T02:38:45;2.10;99.90
7427;DHT22;3755;59.316;18.092;2023-10-19T02:41:14;2.10;99.90
7427;DHT22;3755;59.316;18.092;2023-10-19T02:43:43;2.00;99.90
7427;DHT22;3755;59.316;18.092;2023-10-19T02:46:13;2.00;99.90
7427;DHT22;3755;59.316;18.092;2023-10-19T02:48:42;1.90;99.90
7427;DHT22;3755;59.316;18.092;2023-10-19T02:51:10;1.90;99.90
7427;DHT22;3755;59.316;18.092;2023-10-19T02:53:38;1.80;99.90
7427;DHT22;3755;59.316;18.092;2023-10-19T02:56:12;1.90;99.90
7427;DHT22;3755;59.316;18.092;2023-10-19T02:58:43;1.80;99.90
7427;DHT22;3755;59.316;18.092;2023-10-19T03:01:15;1.90;99.90
7427;DHT22;3755;59.316;18.092;2023-10-19T03:03:48;1.70;99.90
7427;DHT22;3755;59.316;18.092;2023-10-19T03:06:17;1.80;99.90
7427;DHT22;3755;59.316;18.092;2023-10-19T03:08:45;1.70;99.90
7427;DHT22;3755;59.316;18.092;2023-10-19T03:11:12;1.70;99.90
7427;DHT22;3755;59.316;18.092;2023-10-19T03:13:39;1.60;99.90
7427;DHT22;3755;59.316;18.092;2023-10-19T03:16:06;1.50;99.90
7427;DHT22;3755;59.316;18.092;2023-10-19T03:18:35;1.60;99.90
7427;DHT22;3755;59.316;18.092;2023-10-19T03:21:01;1.50;99.90
7427;DHT22;3755;59.316;18.092;2023-10-19T03:23:28;1.50;99.90
7427;DHT22;3755;59.316;18.092;2023-10-19T03:25:55;1.50;99.90
7427;DHT22;3755;59.316;18.092;2023-10-19T03:28:36;1.40;99.90
7427;DHT22;3755;59.316;18.092;2023-10-19T03:31:03;1.30;99.90
7427;DHT22;3755;59.316;18.092;2023-10-19T03:33:30;1.30;99.90
7427;DHT22;3755;59.316;18.092;2023-10-19T03:36:03;1.30;99.90
7427;DHT22;3755;59.316;18.092;2023-10-19T03:38:31;1.30;99.90
7427;DHT22;3755;59.316;18.092;2023-10-19T03:41:00;1.20;99.90
7427;DHT22;3755;59.316;18.092;2023-10-19T03:43:32;1.30;99.90
7427;DHT22;3755;59.316;18.092;2023-10-19T03:46:02;1.20;99.90
7427;DHT22;3755;59.316;18.092;2023-10-19T03:48:40;1.20;99.90
7427;DHT22;3755;59.316;18.092;2023-10-19T03:51:08;1.20;99.90
7427;DHT22;3755;59.316;18.092;2023-10-19T03:53:39;1.10;99.90
7427;DHT22;3755;59.316;18.092;2023-10-19T03:56:09;1.10;99.90
7427;DHT22;3755;59.316;18.092;2023-10-19T03:58:37;1.20;99.90
7427;DHT22;3755;59.316;18.092;2023-10-19T04:01:05;1.00;99.90
7427;DHT22;3755;59.316;18.092;2023-10-19T04:03:32;1.10;99.90
7427;DHT22;3755;59.316;18.092;2023-10-19T04:06:02;1.20;99.90
7427;DHT22;3755;59.316;18.092;2023-10-19T04:08:32;1.10;99.90
7427;DHT22;3755;59.316;18.092;2023-10-19T04:11:03;1.10;99.90
7427;DHT22;3755;59.316;18.092;2023-10-19T04:13:38;1.10;99.90
7427;DHT22;3755;59.316;18.092;2023-10-19T04:16:05;1.00;99.90
7427;DHT22;3755;59.316;18.092;2023-10-19T04:18:34;1.00;99.90
7427;DHT22;3755;59.316;18.092;2023-10-19T04:21:05;1.00;99.90
7427;DHT22;3755;59.316;18.092;2023-10-19T04:23:34;1.10;99.90
7427;DHT22;3755;59.316;18.092;2023-10-19T04:26:02;1.00;99.90
7427;DHT22;3755;59.316;18.092;2023-10-19T04:28:36;1.00;99.90
7427;DHT22;3755;59.316;18.092;2023-10-19T04:31:10;0.90;99.90
7427;DHT22;3755;59.316;18.092;2023-10-19T04:33:40;0.90;99.90
7427;DHT22;3755;59.316;18.092;2023-10-19T04:36:12;0.80;99.90
7427;DHT22;3755;59.316;18.092;2023-10-19T04:38:41;0.80;99.90
7427;DHT22;3755;59.316;18.092;2023-10-19T04:41:10;0.90;99.90
7427;DHT22;3755;59.316;18.092;2023-10-19T04:43:38;0.90;99.90
7427;DHT22;3755;59.316;18.092;2023-10-19T04:46:07;0.80;99.90
7427;DHT22;3755;59.316;18.092;2023-10-19T04:48:37;0.80;99.90
7427;DHT22;3755;59.316;18.092;2023-10-19T04:51:06;0.80;99.90
7427;DHT22;3755;59.316;18.092;2023-10-19T04:53:34;0.90;99.90
7427;DHT22;3755;59.316;18.092;2023-10-19T04:56:04;0.90;99.90
7427;DHT22;3755;59.316;18.092;2023-10-19T04:58:31;0.90;99.90
7427;DHT22;3755;59.316;18.092;2023-10-19T05:00:59;0.90;99.90
7427;DHT22;3755;59.316;18.092;2023-10-19T05:03:26;0.90;99.90
7427;DHT22;3755;59.316;18.092;2023-10-19T05:05:54;0.80;99.90
7427;DHT22;3755;59.316;18.092;2023-10-19T05:08:22;0.80;99.90
7427;DHT22;3755;59.316;18.092;2023-10-19T05:10:52;0.80;99.90
7427;DHT22;3755;59.316;18.092;2023-10-19T05:13:21;0.80;99.90
7427;DHT22;3755;59.316;18.092;2023-10-19T05:15:48;0.80;99.90
7427;DHT22;3755;59.316;18.092;2023-10-19T05:18:15;0.90;99.90
7427;DHT22;3755;59.316;18.092;2023-10-19T05:20:42;0.90;99.90
7427;DHT22;3755;59.316;18.092;2023-10-19T05:23:10;0.90;99.90
7427;DHT22;3755;59.316;18.092;2023-10-19T05:25:38;0.90;99.90
7427;DHT22;3755;59.316;18.092;2023-10-19T05:28:06;1.00;99.90
7427;DHT22;3755;59.316;18.092;2023-10-19T05:30:35;1.00;99.90
7427;DHT22;3755;59.316;18.092;2023-10-19T05:33:03;1.10;99.90
7427;DHT22;3755;59.316;18.092;2023-10-19T05:35:32;1.10;99.90
7427;DHT22;3755;59.316;18.092;2023-10-19T05:38:00;1.00;99.90
7427;DHT22;3755;59.316;18.092;2023-10-19T05:40:28;1.00;99.90
7427;DHT22;3755;59.316;18.092;2023-10-19T05:42:56;0.90;99.90
7427;DHT22;3755;59.316;18.092;2023-10-19T05:45:26;0.80;99.90
7427;DHT22;3755;59.316;18.092;2023-10-19T05:47:55;0.80;99.90
7427;DHT22;3755;59.316;18.092;2023-10-19T05:50:23;0.90;99.90
7427;DHT22;3755;59.316;18.092;2023-10-19T05:52:50;0.90;99.90
7427;DHT22;3755;59.316;18.092;2023-10-19T05:55:18;0.80;99.90
7427;DHT22;3755;59.316;18.092;2023-10-19T05:57:47;0.70;99.90
7427;DHT22;3755;59.316;18.092;2023-10-19T06:00:15;0.70;99.90
7427;DHT22;3755;59.316;18.092;2023-10-19T06:02:45;0.60;99.90
7427;DHT22;3755;59.316;18.092;2023-10-19T06:05:14;0.60;99.90
7427;DHT22;3755;59.316;18.092;2023-10-19T06:07:42;0.50;99.90
7427;DHT22;3755;59.316;18.092;2023-10-19T06:10:13;0.60;99.90
7427;DHT22;3755;59.316;18.092;2023-10-19T06:12:43;0.70;99.90
7427;DHT22;3755;59.316;18.092;2023-10-19T06:15:10;0.70;99.90
7427;DHT22;3755;59.316;18.092;2023-10-19T06:17:38;0.80;99.90
7427;DHT22;3755;59.316;18.092;2023-10-19T06:20:06;0.90;99.90
7427;DHT22;3755;59.316;18.092;2023-10-19T06:22:35;0.80;99.90
7427;DHT22;3755;59.316;18.092;2023-10-19T06:25:03;0.80;99.90
7427;DHT22;3755;59.316;18.092;2023-10-19T06:27:31;0.70;99.90
7427;DHT22;3755;59.316;18.092;2023-10-19T06:29:58;0.70;99.90
7427;DHT22;3755;59.316;18.092;2023-10-19T06:32:25;0.70;99.90
7427;DHT22;3755;59.316;18.092;2023-10-19T06:34:52;0.70;99.90
7427;DHT22;3755;59.316;18.092;2023-10-19T06:37:20;0.80;99.90
7427;DHT22;3755;59.316;18.092;2023-10-19T06:39:48;0.90;99.90
7427;DHT22;3755;59.316;18.092;2023-10-19T06:42:17;1.00;99.90
7427;DHT22;3755;59.316;18.092;2023-10-19T06:44:44;1.20;99.90
7427;DHT22;3755;59.316;18.092;2023-10-19T06:47:11;1.30;99.90
7427;DHT22;3755;59.316;18.092;2023-10-19T06:49:39;1.30;99.90
7427;DHT22;3755;59.316;18.092;2023-10-19T06:52:06;1.40;99.90
7427;DHT22;3755;59.316;18.092;2023-10-19T06:54:37;1.50;99.90
7427;DHT22;3755;59.316;18.092;2023-10-19T06:57:06;1.70;99.90
7427;DHT22;3755;59.316;18.092;2023-10-19T06:59:34;1.50;99.90
7427;DHT22;3755;59.316;18.092;2023-10-19T07:02:01;1.50;99.90
7427;DHT22;3755;59.316;18.092;2023-10-19T07:04:27;1.50;99.90
7427;DHT22;3755;59.316;18.092;2023-10-19T07:06:55;1.60;99.90
7427;DHT22;3755;59.316;18.092;2023-10-19T07:09:22;1.50;99.90
7427;DHT22;3755;59.316;18.092;2023-10-19T07:11:50;1.60;99.90
7427;DHT22;3755;59.316;18.092;2023-10-19T07:14:22;1.70;99.90
7427;DHT22;3755;59.316;18.092;2023-10-19T07:16:49;1.70;99.90
7427;DHT22;3755;59.316;18.092;2023-10-19T07:19:17;1.70;99.90
7427;DHT22;3755;59.316;18.092;2023-10-19T07:21:45;1.70;99.90
7427;DHT22;3755;59.316;18.092;2023-10-19T07:24:15;1.80;99.90
7427;DHT22;3755;59.316;18.092;2023-10-19T07:26:45;1.80;99.90
7427;DHT22;3755;59.316;18.092;2023-10-19T07:29:31;1.80;99.90
7427;DHT22;3755;59.316;18.092;2023-10-19T07:31:59;1.70;99.90
7427;DHT22;3755;59.316;18.092;2023-10-19T07:34:26;1.70;99.90
7427;DHT22;3755;59.316;18.092;2023-10-19T07:36:55;1.70;99.90
7427;DHT22;3755;59.316;18.092;2023-10-19T07:39:24;1.80;99.90
7427;DHT22;3755;59.316;18.092;2023-10-19T07:41:54;1.90;99.90
7427;DHT22;3755;59.316;18.092;2023-10-19T07:44:22;2.00;99.90
7427;DHT22;3755;59.316;18.092;2023-10-19T07:46:50;2.00;99.90
7427;DHT22;3755;59.316;18.092;2023-10-19T07:49:17;2.10;99.90
7427;DHT22;3755;59.316;18.092;2023-10-19T07:51:45;2.20;99.90
7427;DHT22;3755;59.316;18.092;2023-10-19T07:54:12;2.30;99.90
7427;DHT22;3755;59.316;18.092;2023-10-19T07:56:39;2.30;99.90
7427;DHT22;3755;59.316;18.092;2023-10-19T07:59:07;2.40;99.90
7427;DHT22;3755;59.316;18.092;2023-10-19T08:01:34;2.50;99.90
7427;DHT22;3755;59.316;18.092;2023-10-19T08:04:03;2.40;99.90
7427;DHT22;3755;59.316;18.092;2023-10-19T08:06:31;2.40;99.90
7427;DHT22;3755;59.316;18.092;2023-10-19T08:08:58;2.40;99.90
7427;DHT22;3755;59.316;18.092;2023-10-19T08:11:25;2.40;99.90
7427;DHT22;3755;59.316;18.092;2023-10-19T08:13:52;2.40;99.90
7427;DHT22;3755;59.316;18.092;2023-10-19T08:16:20;2.40;99.90
7427;DHT22;3755;59.316;18.092;2023-10-19T08:18:48;2.30;99.90
7427;DHT22;3755;59.316;18.092;2023-10-19T08:21:19;2.30;99.90
7427;DHT22;3755;59.316;18.092;2023-10-19T08:23:47;2.50;99.90
7427;DHT22;3755;59.316;18.092;2023-10-19T08:26:14;2.60;99.90
7427;DHT22;3755;59.316;18.092;2023-10-19T08:28:41;2.80;99.90
7427;DHT22;3755;59.316;18.092;2023-10-19T08:31:09;2.90;99.90
7427;DHT22;3755;59.316;18.092;2023-10-19T08:33:37;3.00;99.90
7427;DHT22;3755;59.316;18.092;2023-10-19T08:36:15;3.00;99.90
7427;DHT22;3755;59.316;18.092;2023-10-19T08:38:44;3.10;99.90
7427;DHT22;3755;59.316;18.092;2023-10-19T08:41:12;3.10;99.90
7427;DHT22;3755;59.316;18.092;2023-10-19T08:43:41;3.10;99.90
7427;DHT22;3755;59.316;18.092;2023-10-19T08:46:08;3.00;99.90
7427;DHT22;3755;59.316;18.092;2023-10-19T08:48:38;3.00;99.90
7427;DHT22;3755;59.316;18.092;2023-10-19T08:51:09;3.00;99.90
7427;DHT22;3755;59.316;18.092;2023-10-19T08:53:37;3.00;99.90
7427;DHT22;3755;59.316;18.092;2023-10-19T08:56:09;3.00;99.90
7427;DHT22;3755;59.316;18.092;2023-10-19T08:58:37;3.10;99.90
7427;DHT22;3755;59.316;18.092;2023-10-19T09:01:04;3.20;99.90
7427;DHT22;3755;59.316;18.092;2023-10-19T09:03:35;3.30;99.90
7427;DHT22;3755;59.316;18.092;2023-10-19T09:06:03;3.40;99.90
7427;DHT22;3755;59.316;18.092;2023-10-19T09:08:31;3.60;99.90
7427;DHT22;3755;59.316;18.092;2023-10-19T09:11:10;3.70;99.90
7427;DHT22;3755;59.316;18.092;2023-10-19T09:13:45;3.70;99.90
7427;DHT22;3755;59.316;18.092;2023-10-19T09:16:13;3.70;99.90
7427;DHT22;3755;59.316;18.092;2023-10-19T09:18:40;3.70;99.90
7427;DHT22;3755;59.316;18.092;2023-10-19T09:21:08;3.70;99.90
7427;DHT22;3755;59.316;18.092;2023-10-19T09:23:37;3.60;99.90
7427;DHT22;3755;59.316;18.092;2023-10-19T09:26:05;3.40;99.90
7427;DHT22;3755;59.316;18.092;2023-10-19T09:28:36;3.30;99.90
7427;DHT22;3755;59.316;18.092;2023-10-19T09:31:04;3.00;99.90
7427;DHT22;3755;59.316;18.092;2023-10-19T09:33:32;3.00;99.90
7427;DHT22;3755;59.316;18.092;2023-10-19T09:36:01;3.10;99.90
7427;DHT22;3755;59.316;18.092;2023-10-19T09:38:30;3.20;99.90
7427;DHT22;3755;59.316;18.092;2023-10-19T09:40:58;3.20;99.90
7427;DHT22;3755;59.316;18.092;2023-10-19T09:43:38;3.30;99.90
7427;DHT22;3755;59.316;18.092;2023-10-19T09:46:08;3.40;99.90
7427;DHT22;3755;59.316;18.092;2023-10-19T09:48:40;3.20;99.90
7427;DHT22;3755;59.316;18.092;2023-10-19T09:51:08;3.00;99.90
7427;DHT22;3755;59.316;18.092;2023-10-19T09:53:36;2.70;99.90
7427;DHT22;3755;59.316;18.092;2023-10-19T09:56:06;2.50;99.90
7427;DHT22;3755;59.316;18.092;2023-10-19T09:58:41;2.50;99.90
7427;DHT22;3755;59.316;18.092;2023-10-19T10:01:11;2.50;99.90
7427;DHT22;3755;59.316;18.092;2023-10-19T10:03:49;2.60;99.90
7427;DHT22;3755;59.316;18.092;2023-10-19T10:06:17;2.70;99.90
7427;DHT22;3755;59.316;18.092;2023-10-19T10:08:53;2.50;99.90
7427;DHT22;3755;59.316;18.092;2023-10-19T10:11:22;2.60;99.90
7427;DHT22;3755;59.316;18.092;2023-10-19T10:13:51;2.60;99.90
7427;DHT22;3755;59.316;18.092;2023-10-19T10:16:19;2.80;99.90
7427;DHT22;3755;59.316;18.092;2023-10-19T10:18:49;2.90;99.90
7427;DHT22;3755;59.316;18.092;2023-10-19T10:21:18;2.90;99.90
7427;DHT22;3755;59.316;18.092;2023-10-19T10:23:50;3.10;99.90
7427;DHT22;3755;59.316;18.092;2023-10-19T10:26:20;3.10;99.90
7427;DHT22;3755;59.316;18.092;2023-10-19T10:29:10;3.00;99.90
7427;DHT22;3755;59.316;18.092;2023-10-19T10:31:42;2.80;99.90
7427;DHT22;3755;59.316;18.092;2023-10-19T10:34:10;2.80;99.90
7427;DHT22;3755;59.316;18.092;2023-10-19T10:36:57;2.70;99.90
7427;DHT22;3755;59.316;18.092;2023-10-19T10:39:25;2.70;99.90
7427;DHT22;3755;59.316;18.092;2023-10-19T10:41:56;2.90;99.90
7427;DHT22;3755;59.316;18.092;2023-10-19T10:44:37;2.90;99.90
7427;DHT22;3755;59.316;18.092;2023-10-19T10:47:07;3.00;99.90
7427;DHT22;3755;59.316;18.092;2023-10-19T10:49:45;3.10;99.90
7427;DHT22;3755;59.316;18.092;2023-10-19T10:52:12;3.10;99.90
7427;DHT22;3755;59.316;18.092;2023-10-19T10:54:39;3.40;99.90
7427;DHT22;3755;59.316;18.092;2023-10-19T10:57:06;3.40;99.90
7427;DHT22;3755;59.316;18.092;2023-10-19T10:59:33;3.50;99.90
7427;DHT22;3755;59.316;18.092;2023-10-19T11:02:08;3.60;99.90
7427;DHT22;3755;59.316;18.092;2023-10-19T11:04:44;3.70;99.90
7427;DHT22;3755;59.316;18.092;2023-10-19T11:07:18;3.50;99.90
7427;DHT22;3755;59.316;18.092;2023-10-19T11:09:45;3.50;99.90
7427;DHT22;3755;59.316;18.092;2023-10-19T11:12:13;3.40;99.90
7427;DHT22;3755;59.316;18.092;2023-10-19T11:14:52;3.60;99.90
7427;DHT22;3755;59.316;18.092;2023-10-19T11:17:21;3.60;99.90
7427;DHT22;3755;59.316;18.092;2023-10-19T11:19:54;3.80;99.90
7427;DHT22;3755;59.316;18.092;2023-10-19T11:22:23;3.80;99.90
7427;DHT22;3755;59.316;18.092;2023-10-19T11:24:52;3.60;99.90
7427;DHT22;3755;59.316;18.092;2023-10-19T11:27:23;3.60;99.90
7427;DHT22;3755;59.316;18.092;2023-10-19T11:29:56;3.60;99.90
7427;DHT22;3755;59.316;18.092;2023-10-19T11:32:38;3.40;99.90
7427;DHT22;3755;59.316;18.092;2023-10-19T11:35:06;3.30;99.90
7427;DHT22;3755;59.316;18.092;2023-10-19T11:37:45;3.30;99.90
7427;DHT22;3755;59.316;18.092;2023-10-19T11:40:12;3.30;99.90
7427;DHT22;3755;59.316;18.092;2023-10-19T11:42:39;3.30;99.90
7427;DHT22;3755;59.316;18.092;2023-10-19T11:45:07;3.40;99.90
7427;DHT22;3755;59.316;18.092;2023-10-19T11:47:34;3.60;99.90
7427;DHT22;3755;59.316;18.092;2023-10-19T11:50:03;3.60;99.90
7427;DHT22;3755;59.316;18.092;2023-10-19T11:52:31;3.60;99.90
7427;DHT22;3755;59.316;18.092;2023-10-19T11:54:59;3.60;99.90
7427;DHT22;3755;59.316;18.092;2023-10-19T11:57:25;3.50;99.90
7427;DHT22;3755;59.316;18.092;2023-10-19T11:59:53;3.50;99.90
7427;DHT22;3755;59.316;18.092;2023-10-19T12:02:19;3.50;99.90
7427;DHT22;3755;59.316;18.092;2023-10-19T12:04:47;3.50;99.90
7427;DHT22;3755;59.316;18.092;2023-10-19T12:07:15;3.50;99.90
7427;DHT22;3755;59.316;18.092;2023-10-19T12:09:42;3.50;99.90
7427;DHT22;3755;59.316;18.092;2023-10-19T12:12:10;3.40;99.90
7427;DHT22;3755;59.316;18.092;2023-10-19T12:14:39;3.30;99.90
7427;DHT22;3755;59.316;18.092;2023-10-19T12:17:05;3.30;99.90
7427;DHT22;3755;59.316;18.092;2023-10-19T12:19:33;3.50;99.90
7427;DHT22;3755;59.316;18.092;2023-10-19T12:22:00;3.50;99.50
7427;DHT22;3755;59.316;18.092;2023-10-19T12:24:29;3.50;99.90
7427;DHT22;3755;59.316;18.092;2023-10-19T12:26:56;3.60;99.90
7427;DHT22;3755;59.316;18.092;2023-10-19T12:29:23;3.90;99.90
7427;DHT22;3755;59.316;18.092;2023-10-19T12:31:51;3.80;99.90
7427;DHT22;3755;59.316;18.092;2023-10-19T12:34:18;3.80;99.90
7427;DHT22;3755;59.316;18.092;2023-10-19T12:36:45;3.90;99.90
7427;DHT22;3755;59.316;18.092;2023-10-19T12:39:13;4.10;99.90
7427;DHT22;3755;59.316;18.092;2023-10-19T12:42:01;4.00;99.90
7427;DHT22;3755;59.316;18.092;2023-10-19T12:44:29;3.90;99.90
7427;DHT22;3755;59.316;18.092;2023-10-19T12:47:04;3.80;99.90
7427;DHT22;3755;59.316;18.092;2023-10-19T12:49:35;3.70;99.90
7427;DHT22;3755;59.316;18.092;2023-10-19T12:52:02;3.50;99.90
7427;DHT22;3755;59.316;18.092;2023-10-19T12:54:30;3.50;99.90
7427;DHT22;3755;59.316;18.092;2023-10-19T12:56:57;3.60;99.90
7427;DHT22;3755;59.316;18.092;2023-10-19T12:59:25;3.60;99.90
7427;DHT22;3755;59.316;18.092;2023-10-19T13:01:53;3.60;99.90
7427;DHT22;3755;59.316;18.092;2023-10-19T13:04:23;3.50;99.90
7427;DHT22;3755;59.316;18.092;2023-10-19T13:06:50;3.50;99.90
7427;DHT22;3755;59.316;18.092;2023-10-19T13:09:17;3.40;99.90
7427;DHT22;3755;59.316;18.092;2023-10-19T13:11:48;3.30;99.90
7427;DHT22;3755;59.316;18.092;2023-10-19T13:14:17;3.30;99.90
7427;DHT22;3755;59.316;18.092;2023-10-19T13:16:46;3.40;99.90
7427;DHT22;3755;59.316;18.092;2023-10-19T13:19:15;3.70;99.90
7427;DHT22;3755;59.316;18.092;2023-10-19T13:21:46;3.90;99.90
7427;DHT22;3755;59.316;18.092;2023-10-19T13:24:29;3.90;99.90
7427;DHT22;3755;59.316;18.092;2023-10-19T13:26:57;4.00;99.90
7427;DHT22;3755;59.316;18.092;2023-10-19T13:29:24;3.80;99.90
7427;DHT22;3755;59.316;18.092;2023-10-19T13:31:54;3.70;99.90
7427;DHT22;3755;59.316;18.092;2023-10-19T13:34:21;3.40;99.90
7427;DHT22;3755;59.316;18.092;2023-10-19T13:36:48;3.30;99.90
7427;DHT22;3755;59.316;18.092;2023-10-19T13:39:17;3.20;99.90
7427;DHT22;3755;59.316;18.092;2023-10-19T13:41:44;3.10;99.90
7427;DHT22;3755;59.316;18.092;2023-10-19T13:44:11;3.10;99.90
7427;DHT22;3755;59.316;18.092;2023-10-19T13:46:38;3.00;99.90
7427;DHT22;3755;59.316;18.092;2023-10-19T13:49:07;2.90;99.90
7427;DHT22;3755;59.316;18.092;2023-10-19T13:51:35;3.00;99.90
7427;DHT22;3755;59.316;18.092;2023-10-19T13:54:02;3.00;99.90
7427;DHT22;3755;59.316;18.092;2023-10-19T13:56:29;3.10;99.90
7427;DHT22;3755;59.316;18.092;2023-10-19T13:58:56;3.10;99.90
7427;DHT22;3755;59.316;18.092;2023-10-19T14:01:24;3.10;99.90
7427;DHT22;3755;59.316;18.092;2023-10-19T14:03:54;3.20;99.90
7427;DHT22;3755;59.316;18.092;2023-10-19T14:06:23;3.30;99.90
7427;DHT22;3755;59.316;18.092;2023-10-19T14:08:50;3.30;99.90
7427;DHT22;3755;59.316;18.092;2023-10-19T14:11:18;3.30;99.90
7427;DHT22;3755;59.316;18.092;2023-10-19T14:13:45;3.50;99.90
7427;DHT22;3755;59.316;18.092;2023-10-19T14:16:12;3.60;99.90
7427;DHT22;3755;59.316;18.092;2023-10-19T14:18:39;4.00;99.90
7427;DHT22;3755;59.316;18.092;2023-10-19T14:21:13;4.40;99.50
7427;DHT22;3755;59.316;18.092;2023-10-19T14:23:41;4.70;99.10
7427;DHT22;3755;59.316;18.092;2023-10-19T14:26:10;4.60;98.70
7427;DHT22;3755;59.316;18.092;2023-10-19T14:28:37;4.30;98.50
7427;DHT22;3755;59.316;18.092;2023-10-19T14:31:05;3.90;98.70
7427;DHT22;3755;59.316;18.092;2023-10-19T14:33:33;3.70;99.30
7427;DHT22;3755;59.316;18.092;2023-10-19T14:36:01;3.50;99.70
7427;DHT22;3755;59.316;18.092;2023-10-19T14:38:29;3.40;99.90
7427;DHT22;3755;59.316;18.092;2023-10-19T14:40:58;3.20;99.90
7427;DHT22;3755;59.316;18.092;2023-10-19T14:43:25;3.30;99.90
7427;DHT22;3755;59.316;18.092;2023-10-19T14:45:54;3.30;99.90
7427;DHT22;3755;59.316;18.092;2023-10-19T14:48:22;3.30;99.90
7427;DHT22;3755;59.316;18.092;2023-10-19T14:50:49;3.20;99.90
7427;DHT22;3755;59.316;18.092;2023-10-19T14:53:17;3.20;99.90
7427;DHT22;3755;59.316;18.092;2023-10-19T14:55:44;3.10;99.90
7427;DHT22;3755;59.316;18.092;2023-10-19T14:58:13;3.10;99.90
7427;DHT22;3755;59.316;18.092;2023-10-19T15:00:40;3.10;99.90
7427;DHT22;3755;59.316;18.092;2023-10-19T15:03:10;3.00;99.90
7427;DHT22;3755;59.316;18.092;2023-10-19T15:05:37;2.90;99.90
7427;DHT22;3755;59.316;18.092;2023-10-19T15:08:07;2.90;99.90
7427;DHT22;3755;59.316;18.092;2023-10-19T15:10:40;2.90;99.90
7427;DHT22;3755;59.316;18.092;2023-10-19T15:13:07;2.80;99.90
7427;DHT22;3755;59.316;18.092;2023-10-19T15:15:36;2.70;99.90
7427;DHT22;3755;59.316;18.092;2023-10-19T15:18:03;2.70;99.90
7427;DHT22;3755;59.316;18.092;2023-10-19T15:20:30;2.60;99.90
7427;DHT22;3755;59.316;18.092;2023-10-19T15:22:58;2.50;99.90
7427;DHT22;3755;59.316;18.092;2023-10-19T15:25:26;2.40;99.90
7427;DHT22;3755;59.316;18.092;2023-10-19T15:27:53;2.40;99.90
7427;DHT22;3755;59.316;18.092;2023-10-19T15:30:21;2.40;99.90
7427;DHT22;3755;59.316;18.092;2023-10-19T15:32:51;2.30;99.90
7427;DHT22;3755;59.316;18.092;2023-10-19T15:35:19;2.20;99.90
7427;DHT22;3755;59.316;18.092;2023-10-19T15:37:48;2.10;99.90
7427;DHT22;3755;59.316;18.092;2023-10-19T15:40:16;2.10;99.90
7427;DHT22;3755;59.316;18.092;2023-10-19T15:42:43;2.00;99.90
7427;DHT22;3755;59.316;18.092;2023-10-19T15:45:11;2.00;99.90
7427;DHT22;3755;59.316;18.092;2023-10-19T15:47:38;1.90;99.90
7427;DHT22;3755;59.316;18.092;2023-10-19T15:50:07;1.90;99.90
7427;DHT22;3755;59.316;18.092;2023-10-19T15:52:35;1.90;99.90
7427;DHT22;3755;59.316;18.092;2023-10-19T15:55:08;1.90;99.90
7427;DHT22;3755;59.316;18.092;2023-10-19T15:57:36;1.90;99.90
7427;DHT22;3755;59.316;18.092;2023-10-19T16:00:04;2.00;99.90
7427;DHT22;3755;59.316;18.092;2023-10-19T16:02:32;2.00;99.90
7427;DHT22;3755;59.316;18.092;2023-10-19T16:05:00;2.00;99.90
7427;DHT22;3755;59.316;18.092;2023-10-19T16:07:29;2.00;99.90
7427;DHT22;3755;59.316;18.092;2023-10-19T16:09:56;2.00;99.90
7427;DHT22;3755;59.316;18.092;2023-10-19T16:12:23;2.00;99.90
7427;DHT22;3755;59.316;18.092;2023-10-19T16:14:50;1.90;99.90